createdAt,value
2018-07-07T17:58:38.688Z,25.67
2018-07-07T17:59:26.637Z,25.63
2018-07-07T18:00:26.559Z,25.70
2018-07-07T18:01:26.525Z,25.68
2018-07-07T18:02:26.509Z,25.83
2018-07-07T18:03:26.519Z,25.66
2018-07-07T18:04:26.499Z,25.45
2018-07-07T18:05:26.481Z,25.46
2018-07-07T18:06:26.471Z,25.49
2018-07-07T18:07:26.487Z,25.43
2018-07-07T18:08:26.463Z,25.37
2018-07-07T18:09:26.448Z,25.37
2018-07-07T18:10:26.431Z,25.40
2018-07-07T18:11:26.438Z,25.23
2018-07-07T18:12:26.416Z,25.08
2018-07-07T18:13:26.392Z,24.96
2018-07-07T18:14:26.384Z,24.78
2018-07-07T18:15:26.466Z,24.81
2018-07-07T18:16:26.367Z,24.85
2018-07-07T18:17:28.121Z,24.96
2018-07-07T18:18:26.352Z,24.96
2018-07-07T18:19:26.346Z,24.96
2018-07-07T18:20:26.332Z,24.82
2018-07-07T18:21:26.311Z,24.86
2018-07-07T18:22:26.306Z,24.82
2018-07-07T18:23:26.292Z,24.78
2018-07-07T18:24:26.333Z,24.81
2018-07-07T18:25:29.123Z,24.60
2018-07-07T18:26:26.303Z,24.53
2018-07-07T18:27:26.252Z,24.37
2018-07-07T18:28:26.308Z,24.31
2018-07-07T18:29:26.220Z,24.28
2018-07-07T18:30:26.205Z,24.18
2018-07-07T18:31:29.117Z,24.21
2018-07-07T18:32:26.193Z,24.07
2018-07-07T18:33:26.216Z,23.98
2018-07-07T18:34:26.162Z,24.00
2018-07-07T18:35:26.152Z,24.07
2018-07-07T18:36:26.148Z,24.03
2018-07-07T18:37:26.213Z,24.03
2018-07-07T18:38:26.122Z,24.04
2018-07-07T18:39:26.107Z,24.03
2018-07-07T18:40:26.109Z,23.98
2018-07-07T18:41:26.118Z,23.97
2018-07-07T18:42:26.068Z,23.96
2018-07-07T18:43:26.071Z,24.01
2018-07-07T18:44:26.060Z,23.97
2018-07-07T18:45:26.028Z,23.82
2018-07-07T18:58:48.761Z,23.17
2018-07-07T18:59:48.744Z,23.08
2018-07-07T19:01:43.203Z,23.01
2018-07-07T19:02:43.207Z,22.99
2018-07-07T19:03:43.717Z,23.04
2018-07-07T19:04:43.484Z,22.96
2018-07-07T19:05:43.160Z,22.92
2018-07-07T19:06:43.284Z,22.86
2018-07-07T19:07:43.211Z,22.80
2018-07-07T19:08:43.107Z,22.86
2018-07-07T19:09:43.109Z,22.86
2018-07-07T19:10:43.136Z,22.77
2018-07-07T19:11:46.635Z,22.77
2018-07-07T19:12:43.067Z,22.70
2018-07-07T19:13:43.065Z,22.74
2018-07-07T19:14:43.220Z,22.78
2018-07-07T19:15:43.026Z,22.76
2018-07-07T19:16:45.154Z,22.76
2018-07-07T19:19:51.677Z,22.56
2018-07-07T19:20:16.327Z,22.59
2018-07-07T19:22:10.862Z,22.53
2018-07-07T19:23:10.831Z,22.44
2018-07-07T19:25:10.783Z,22.41
2018-07-07T19:26:11.268Z,22.37
2018-07-07T19:27:11.225Z,22.31
2018-07-07T19:28:11.188Z,22.27
2018-07-07T19:29:10.849Z,22.27
2018-07-07T19:30:10.906Z,22.36
2018-07-07T19:31:10.729Z,22.33
2018-07-07T19:35:38.389Z,22.11
2018-07-07T19:36:38.360Z,22.04
2018-07-07T19:37:38.406Z,22.06
2018-07-07T19:38:38.356Z,22.09
2018-07-07T19:39:38.313Z,22.06
2018-07-07T19:40:38.333Z,22.16
2018-07-07T19:41:38.289Z,22.18
2018-07-07T19:42:38.348Z,22.15
2018-07-07T19:43:38.260Z,22.01
2018-07-07T19:44:38.243Z,21.98
2018-07-07T19:45:38.249Z,22.04
2018-07-07T19:46:38.250Z,22.09
2018-07-07T19:47:38.204Z,22.07
2018-07-07T19:48:38.183Z,22.12
2018-07-07T19:49:38.183Z,22.11
2018-07-07T19:50:38.159Z,21.94
2018-07-07T19:51:38.152Z,22.07
2018-07-07T19:52:38.159Z,22.01
2018-07-07T19:53:38.200Z,22.07
2018-07-07T19:54:38.124Z,22.03
2018-07-07T19:55:38.111Z,22.00
2018-07-07T19:56:38.104Z,21.97
2018-07-07T19:57:38.083Z,21.96
2018-07-07T19:58:38.069Z,21.82
2018-07-07T19:59:38.116Z,21.85
2018-07-07T20:00:38.087Z,21.66
2018-07-07T20:01:38.055Z,21.75
2018-07-07T20:02:38.027Z,21.71
2018-07-07T20:03:38.068Z,21.74
2018-07-07T20:04:38.121Z,21.65
2018-07-07T20:05:37.987Z,21.63
2018-07-07T20:06:38.151Z,21.51
2018-07-07T20:07:38.028Z,21.50
2018-07-07T20:08:37.914Z,21.50
2018-07-07T20:09:37.933Z,21.53
2018-07-07T20:10:37.917Z,21.45
2018-07-07T20:11:37.921Z,21.43
2018-07-07T20:12:37.992Z,21.29
2018-07-07T20:13:37.902Z,21.30
2018-07-07T20:14:37.840Z,21.37
2018-07-07T20:15:37.919Z,21.32
2018-07-07T20:16:37.856Z,21.29
2018-07-07T20:17:37.826Z,21.40
2018-07-07T20:18:37.777Z,21.34
2018-07-07T20:19:37.861Z,21.32
2018-07-07T20:20:37.812Z,21.23
2018-07-07T20:21:37.764Z,21.20
2018-07-07T20:22:37.753Z,21.10
2018-07-07T20:23:37.810Z,21.11
2018-07-07T20:24:37.755Z,21.04
2018-07-07T20:25:37.661Z,20.93
2018-07-07T20:26:37.848Z,21.13
2018-07-07T20:27:37.696Z,21.07
2018-07-07T20:28:37.639Z,20.97
2018-07-07T20:29:37.611Z,20.97
2018-07-07T20:30:37.606Z,20.88
2018-07-07T20:31:37.606Z,20.88
2018-07-07T20:32:37.565Z,20.92
2018-07-07T20:33:37.551Z,20.79
2018-07-07T20:34:37.539Z,20.80
2018-07-07T20:35:37.517Z,20.80
2018-07-07T20:36:37.506Z,20.75
2018-07-07T20:37:37.494Z,20.92
2018-07-07T20:38:37.495Z,20.85
2018-07-07T20:39:37.462Z,20.88
2018-07-07T20:40:37.446Z,20.88
2018-07-07T20:41:37.433Z,20.75
2018-07-07T20:42:37.424Z,20.80
2018-07-07T20:43:37.408Z,20.75
2018-07-07T20:44:37.391Z,20.64
2018-07-07T20:45:37.371Z,20.71
2018-07-07T20:46:37.356Z,20.58
2018-07-07T20:47:37.338Z,20.53
2018-07-07T20:48:37.331Z,20.67
2018-07-07T20:49:37.311Z,20.68
2018-07-07T20:50:37.306Z,20.61
2018-07-07T20:51:37.318Z,20.60
2018-07-07T20:52:37.263Z,20.58
2018-07-07T20:53:37.297Z,20.58
2018-07-07T20:54:37.255Z,20.52
2018-07-07T20:55:37.245Z,20.48
2018-07-07T20:56:37.211Z,20.64
2018-07-07T20:57:37.191Z,20.55
2018-07-07T20:58:37.178Z,20.55
2018-07-07T20:59:37.185Z,20.42
2018-07-07T21:00:37.168Z,20.48
2018-07-07T21:01:37.154Z,20.44
2018-07-07T21:02:37.138Z,20.46
2018-07-07T21:03:37.100Z,20.42
2018-07-07T21:04:37.100Z,20.39
2018-07-07T21:05:37.133Z,20.41
2018-07-07T21:06:37.069Z,20.39
2018-07-07T21:07:37.049Z,20.37
2018-07-07T21:08:37.031Z,20.34
2018-07-07T21:09:37.021Z,20.29
2018-07-07T21:10:36.998Z,20.29
2018-07-07T21:11:36.982Z,20.29
2018-07-07T21:12:36.991Z,20.18
2018-07-07T21:13:36.952Z,20.18
2018-07-07T21:14:36.942Z,20.19
2018-07-07T21:15:36.929Z,20.17
2018-07-07T21:16:36.904Z,20.04
2018-07-07T21:17:36.894Z,19.92
2018-07-07T21:18:36.880Z,20.02
2018-07-07T21:19:36.910Z,19.94
2018-07-07T21:20:36.861Z,19.92
2018-07-07T21:21:36.825Z,19.79
2018-07-07T21:22:36.834Z,19.78
2018-07-07T21:23:36.929Z,19.78
2018-07-07T21:24:36.807Z,19.77
2018-07-07T21:25:36.764Z,19.77
2018-07-07T21:26:36.752Z,19.64
2018-07-07T21:27:36.753Z,19.74
2018-07-07T21:28:36.741Z,19.68
2018-07-07T21:29:36.727Z,19.77
2018-07-07T21:30:36.728Z,19.72
2018-07-07T21:31:36.812Z,19.71
2018-07-07T21:32:36.691Z,19.68
2018-07-07T21:33:36.716Z,19.62
2018-07-07T21:34:36.721Z,19.67
2018-07-07T21:35:36.675Z,19.64
2018-07-07T21:36:36.595Z,19.64
2018-07-07T21:37:36.587Z,19.63
2018-07-07T21:38:36.600Z,19.57
2018-07-07T21:39:36.564Z,19.62
2018-07-07T21:40:36.537Z,19.54
2018-07-07T21:41:36.593Z,19.57
2018-07-07T21:42:36.519Z,19.52
2018-07-07T21:43:36.490Z,19.39
2018-07-07T21:44:36.503Z,19.47
2018-07-07T21:45:36.474Z,19.41
2018-07-07T21:46:36.475Z,19.38
2018-07-07T21:47:36.430Z,19.31
2018-07-07T21:48:36.424Z,19.35
2018-07-07T21:49:36.392Z,19.30
2018-07-07T21:50:36.393Z,19.20
2018-07-07T21:51:36.362Z,19.24
2018-07-07T21:52:36.375Z,19.31
2018-07-07T21:53:36.381Z,19.23
2018-07-07T21:54:36.359Z,19.32
2018-07-07T21:55:36.303Z,19.23
2018-07-07T21:56:36.298Z,19.24
2018-07-07T21:57:36.487Z,19.20
2018-07-07T21:58:36.294Z,19.16
2018-07-07T21:59:36.264Z,19.16
2018-07-07T22:00:36.243Z,19.19
2018-07-07T22:01:36.215Z,19.12
2018-07-07T22:02:36.238Z,19.07
2018-07-07T22:03:36.194Z,19.04
2018-07-07T22:04:36.183Z,19.01
2018-07-07T22:05:36.327Z,19.01
2018-07-07T22:06:36.139Z,19.05
2018-07-07T22:07:36.135Z,18.94
2018-07-07T22:08:36.087Z,18.98
2018-07-07T22:09:36.132Z,18.98
2018-07-07T22:10:36.065Z,18.91
2018-07-07T22:11:36.072Z,18.97
2018-07-07T22:12:36.042Z,18.86
2018-07-07T22:13:36.024Z,18.83
2018-07-07T22:14:36.023Z,18.85
2018-07-07T22:15:36.002Z,18.78
2018-07-07T22:16:35.960Z,18.76
2018-07-07T22:17:35.944Z,18.81
2018-07-07T22:18:35.933Z,18.71
2018-07-07T22:19:35.967Z,18.76
2018-07-07T22:20:35.902Z,18.66
2018-07-07T22:21:36.181Z,18.75
2018-07-07T22:22:35.908Z,18.63
2018-07-07T22:23:35.869Z,18.75
2018-07-07T22:24:35.841Z,18.63
2018-07-07T22:25:35.831Z,18.58
2018-07-07T22:26:35.819Z,18.60
2018-07-07T22:27:35.789Z,18.67
2018-07-07T22:28:35.802Z,18.66
2018-07-07T22:29:35.778Z,18.61
2018-07-07T22:30:35.731Z,18.67
2018-07-07T22:31:35.724Z,18.57
2018-07-07T22:32:35.730Z,18.56
2018-07-07T22:33:35.729Z,18.60
2018-07-07T22:34:35.670Z,18.52
2018-07-07T22:35:35.658Z,18.52
2018-07-07T22:36:35.647Z,18.51
2018-07-07T22:37:35.651Z,18.54
2018-07-07T22:38:35.614Z,18.54
2018-07-07T22:39:35.602Z,18.54
2018-07-07T22:40:35.598Z,18.49
2018-07-07T22:41:35.574Z,18.52
2018-07-07T22:42:35.562Z,18.43
2018-07-07T22:43:35.552Z,18.49
2018-07-07T22:44:35.516Z,18.43
2018-07-07T22:45:35.497Z,18.42
2018-07-07T22:46:35.474Z,18.41
2018-07-07T22:47:35.460Z,18.41
2018-07-07T22:48:35.470Z,18.42
2018-07-07T22:49:35.420Z,18.36
2018-07-07T22:50:35.415Z,18.36
2018-07-07T22:51:35.417Z,18.23
2018-07-07T22:52:35.383Z,18.26
2018-07-07T22:53:35.356Z,18.26
2018-07-07T22:54:35.342Z,18.24
2018-07-07T22:55:35.333Z,18.18
2018-07-07T22:56:35.312Z,18.21
2018-07-07T22:57:35.311Z,18.21
2018-07-07T22:58:35.301Z,18.13
2018-07-07T22:59:35.266Z,18.17
2018-07-07T23:00:35.240Z,18.15
2018-07-07T23:01:35.236Z,18.03
2018-07-07T23:02:35.231Z,18.03
2018-07-07T23:03:35.212Z,18.05
2018-07-07T23:04:35.191Z,17.96
2018-07-07T23:05:35.176Z,18.08
2018-07-07T23:06:35.143Z,18.01
2018-07-07T23:07:35.130Z,17.97
2018-07-07T23:08:35.120Z,18.06
2018-07-07T23:09:35.094Z,17.91
2018-07-07T23:10:35.104Z,17.81
2018-07-07T23:11:35.064Z,17.93
2018-07-07T23:12:35.037Z,17.91
2018-07-07T23:13:35.059Z,17.88
2018-07-07T23:14:35.019Z,17.83
2018-07-07T23:15:35.006Z,17.87
2018-07-07T23:16:34.973Z,17.78
2018-07-07T23:17:34.977Z,17.83
2018-07-07T23:18:34.977Z,17.84
2018-07-07T23:19:35.033Z,17.68
2018-07-07T23:20:34.928Z,17.68
2018-07-07T23:21:34.941Z,17.69
2018-07-07T23:22:35.034Z,17.75
2018-07-07T23:23:34.952Z,17.66
2018-07-07T23:24:34.857Z,17.71
2018-07-07T23:25:34.888Z,17.65
2018-07-07T23:26:34.806Z,17.66
2018-07-07T23:27:34.806Z,17.68
2018-07-07T23:28:34.809Z,17.53
2018-07-07T23:29:34.807Z,17.53
2018-07-07T23:30:34.742Z,17.52
2018-07-07T23:31:34.726Z,17.57
2018-07-07T23:32:34.747Z,17.56
2018-07-07T23:33:34.703Z,17.50
2018-07-07T23:34:34.679Z,17.49
2018-07-07T23:35:34.695Z,17.47
2018-07-07T23:36:34.714Z,17.49
2018-07-07T23:37:34.618Z,17.45
2018-07-07T23:38:34.609Z,17.46
2018-07-07T23:39:34.604Z,17.56
2018-07-07T23:40:34.587Z,17.50
2018-07-07T23:41:34.561Z,17.43
2018-07-07T23:42:34.569Z,17.46
2018-07-07T23:43:34.524Z,17.46
2018-07-07T23:44:34.499Z,17.41
2018-07-07T23:45:34.521Z,17.27
2018-07-07T23:46:34.465Z,17.31
2018-07-07T23:47:34.468Z,17.28
2018-07-07T23:48:34.448Z,17.27
2018-07-07T23:49:34.420Z,17.38
2018-07-07T23:50:34.402Z,17.25
2018-07-07T23:51:34.407Z,17.22
2018-07-07T23:52:34.373Z,17.22
2018-07-07T23:53:34.349Z,17.19
2018-07-07T23:54:34.338Z,17.12
2018-07-07T23:55:34.311Z,17.13
2018-07-07T23:56:34.296Z,17.13
2018-07-07T23:57:34.279Z,17.10
2018-07-07T23:58:34.260Z,17.17
2018-07-07T23:59:34.265Z,17.20
